Riberalta, Bolivia
Current Conditions -  °F | °C
As of 6:00 PM on Saturday 24 Jan 2015 (Local Time) from SLRI Reporting Station
Rain Showers Rain Showers  
Wind Chill: 81°   Ceiling: 20000
Heat Index: 86°   Visibility: 5mi
Dew Point: 75°   Wind: 0mph
Humidity: 84%   Direction: NA
Pressure: 29.8"   Gusts: NA
Location:  11°S, 66.1°W
Report Text: SLRI 242200Z 00000KT 8000 VCSH SCT015 FEW020CB BKN200 27/24 Q1009
Loading
Personal Weather Stations






























Interactive Weather Map New forecast layout! Learn more

10-Day Weather Forecast

Advertisements
Track Severe Weather on mobile